sensor_id;sensor_type;location;lat;lon;timestamp;temperature;humidity
29813;DHT22;16707;48.106;11.548;2023-05-19T00:01:33;9.70;99.90
29813;DHT22;16707;48.106;11.548;2023-05-19T00:04:04;9.70;99.90
29813;DHT22;16707;48.106;11.548;2023-05-19T00:06:32;9.60;99.90
29813;DHT22;16707;48.106;11.548;2023-05-19T00:09:09;9.60;99.90
29813;DHT22;16707;48.106;11.548;2023-05-19T00:11:38;9.60;99.90
29813;DHT22;16707;48.106;11.548;2023-05-19T00:14:15;9.50;99.90
29813;DHT22;16707;48.106;11.548;2023-05-19T00:16:46;9.50;99.90
29813;DHT22;16707;48.106;11.548;2023-05-19T00:19:13;9.60;99.90
29813;DHT22;16707;48.106;11.548;2023-05-19T00:21:44;9.50;99.90
29813;DHT22;16707;48.106;11.548;2023-05-19T00:24:13;9.50;99.90
29813;DHT22;16707;48.106;11.548;2023-05-19T00:26:42;9.40;99.90
29813;DHT22;16707;48.106;11.548;2023-05-19T00:29:21;9.50;99.90
29813;DHT22;16707;48.106;11.548;2023-05-19T00:31:53;9.40;99.90
29813;DHT22;16707;48.106;11.548;2023-05-19T00:34:20;9.40;99.90
29813;DHT22;16707;48.106;11.548;2023-05-19T00:36:47;9.40;99.90
29813;DHT22;16707;48.106;11.548;2023-05-19T00:39:32;9.50;99.90
29813;DHT22;16707;48.106;11.548;2023-05-19T00:42:03;9.50;99.90
29813;DHT22;16707;48.106;11.548;2023-05-19T00:44:33;9.50;99.90
29813;DHT22;16707;48.106;11.548;2023-05-19T00:47:05;9.50;99.90
29813;DHT22;16707;48.106;11.548;2023-05-19T00:49:32;9.50;99.90
29813;DHT22;16707;48.106;11.548;2023-05-19T00:52:00;9.50;99.90
29813;DHT22;16707;48.106;11.548;2023-05-19T00:54:28;9.50;99.90
29813;DHT22;16707;48.106;11.548;2023-05-19T00:56:56;9.50;99.90
29813;DHT22;16707;48.106;11.548;2023-05-19T00:59:31;9.50;99.90
29813;DHT22;16707;48.106;11.548;2023-05-19T01:02:01;9.50;99.90
29813;DHT22;16707;48.106;11.548;2023-05-19T01:04:33;9.50;99.90
29813;DHT22;16707;48.106;11.548;2023-05-19T01:07:02;9.50;99.90
29813;DHT22;16707;48.106;11.548;2023-05-19T01:09:30;9.50;99.90
29813;DHT22;16707;48.106;11.548;2023-05-19T01:11:58;9.50;99.90
29813;DHT22;16707;48.106;11.548;2023-05-19T01:14:28;9.50;99.90
29813;DHT22;16707;48.106;11.548;2023-05-19T01:17:04;9.50;99.90
29813;DHT22;16707;48.106;11.548;2023-05-19T01:19:50;9.50;99.90
29813;DHT22;16707;48.106;11.548;2023-05-19T01:22:31;9.40;99.90
29813;DHT22;16707;48.106;11.548;2023-05-19T01:25:31;9.50;99.90
29813;DHT22;16707;48.106;11.548;2023-05-19T01:28:19;9.50;99.90
29813;DHT22;16707;48.106;11.548;2023-05-19T01:30:54;9.50;99.90
29813;DHT22;16707;48.106;11.548;2023-05-19T01:33:22;9.40;99.90
29813;DHT22;16707;48.106;11.548;2023-05-19T01:35:55;9.50;99.90
29813;DHT22;16707;48.106;11.548;2023-05-19T01:38:24;9.50;99.90
29813;DHT22;16707;48.106;11.548;2023-05-19T01:40:53;9.50;99.90
29813;DHT22;16707;48.106;11.548;2023-05-19T01:43:23;9.50;99.90
29813;DHT22;16707;48.106;11.548;2023-05-19T01:45:56;9.50;99.90
29813;DHT22;16707;48.106;11.548;2023-05-19T01:48:25;9.40;99.90
29813;DHT22;16707;48.106;11.548;2023-05-19T01:50:56;9.50;99.90
29813;DHT22;16707;48.106;11.548;2023-05-19T01:53:23;9.40;99.90
29813;DHT22;16707;48.106;11.548;2023-05-19T01:55:54;9.50;99.90
29813;DHT22;16707;48.106;11.548;2023-05-19T01:58:30;9.40;99.90
29813;DHT22;16707;48.106;11.548;2023-05-19T02:01:02;9.40;99.90
29813;DHT22;16707;48.106;11.548;2023-05-19T02:04:00;9.40;99.90
29813;DHT22;16707;48.106;11.548;2023-05-19T02:06:34;9.50;99.90
29813;DHT22;16707;48.106;11.548;2023-05-19T02:09:08;9.50;99.90
29813;DHT22;16707;48.106;11.548;2023-05-19T02:11:40;9.60;99.90
29813;DHT22;16707;48.106;11.548;2023-05-19T02:14:12;9.50;99.90
29813;DHT22;16707;48.106;11.548;2023-05-19T02:16:44;9.40;99.90
29813;DHT22;16707;48.106;11.548;2023-05-19T02:19:20;9.40;99.90
29813;DHT22;16707;48.106;11.548;2023-05-19T02:21:47;9.40;99.90
29813;DHT22;16707;48.106;11.548;2023-05-19T02:24:23;9.40;99.90
29813;DHT22;16707;48.106;11.548;2023-05-19T02:26:50;9.40;99.90
29813;DHT22;16707;48.106;11.548;2023-05-19T02:29:24;9.40;99.90
29813;DHT22;16707;48.106;11.548;2023-05-19T02:31:59;9.40;99.90
29813;DHT22;16707;48.106;11.548;2023-05-19T02:34:26;9.40;99.90
29813;DHT22;16707;48.106;11.548;2023-05-19T02:36:53;9.20;99.90
29813;DHT22;16707;48.106;11.548;2023-05-19T02:39:21;9.30;99.90
29813;DHT22;16707;48.106;11.548;2023-05-19T02:41:48;9.20;99.90
29813;DHT22;16707;48.106;11.548;2023-05-19T02:44:17;9.40;99.90
29813;DHT22;16707;48.106;11.548;2023-05-19T02:46:45;9.20;99.90
29813;DHT22;16707;48.106;11.548;2023-05-19T02:49:13;9.20;99.90
29813;DHT22;16707;48.106;11.548;2023-05-19T02:51:40;9.20;99.90
29813;DHT22;16707;48.106;11.548;2023-05-19T02:54:07;9.30;99.90
29813;DHT22;16707;48.106;11.548;2023-05-19T02:56:34;9.30;99.90
29813;DHT22;16707;48.106;11.548;2023-05-19T02:59:05;9.30;99.90
29813;DHT22;16707;48.106;11.548;2023-05-19T03:01:33;9.20;99.90
29813;DHT22;16707;48.106;11.548;2023-05-19T03:04:10;9.20;99.90
29813;DHT22;16707;48.106;11.548;2023-05-19T03:06:40;9.30;99.90
29813;DHT22;16707;48.106;11.548;2023-05-19T03:09:16;9.20;99.90
29813;DHT22;16707;48.106;11.548;2023-05-19T03:11:50;9.20;99.90
29813;DHT22;16707;48.106;11.548;2023-05-19T03:14:19;9.20;99.90
29813;DHT22;16707;48.106;11.548;2023-05-19T03:16:50;9.10;99.90
29813;DHT22;16707;48.106;11.548;2023-05-19T03:19:18;9.10;99.90
29813;DHT22;16707;48.106;11.548;2023-05-19T03:21:52;9.00;99.90
29813;DHT22;16707;48.106;11.548;2023-05-19T03:24:29;9.00;99.90
29813;DHT22;16707;48.106;11.548;2023-05-19T03:26:56;9.00;99.90
29813;DHT22;16707;48.106;11.548;2023-05-19T03:29:23;9.10;99.90
29813;DHT22;16707;48.106;11.548;2023-05-19T03:31:52;9.00;99.90
29813;DHT22;16707;48.106;11.548;2023-05-19T03:34:26;9.00;99.90
29813;DHT22;16707;48.106;11.548;2023-05-19T03:36:54;9.00;99.90
29813;DHT22;16707;48.106;11.548;2023-05-19T03:39:27;9.00;99.90
29813;DHT22;16707;48.106;11.548;2023-05-19T03:41:53;9.00;99.90
29813;DHT22;16707;48.106;11.548;2023-05-19T03:44:23;8.90;99.90
29813;DHT22;16707;48.106;11.548;2023-05-19T03:46:50;9.00;99.90
29813;DHT22;16707;48.106;11.548;2023-05-19T03:49:19;8.90;99.90
29813;DHT22;16707;48.106;11.548;2023-05-19T03:51:46;8.90;99.90
29813;DHT22;16707;48.106;11.548;2023-05-19T03:54:15;9.00;99.90
29813;DHT22;16707;48.106;11.548;2023-05-19T03:56:43;9.10;99.90
29813;DHT22;16707;48.106;11.548;2023-05-19T03:59:13;9.10;99.90
29813;DHT22;16707;48.106;11.548;2023-05-19T04:01:40;9.00;99.90
29813;DHT22;16707;48.106;11.548;2023-05-19T04:04:07;9.10;99.90
29813;DHT22;16707;48.106;11.548;2023-05-19T04:06:34;9.10;99.90
29813;DHT22;16707;48.106;11.548;2023-05-19T04:09:15;9.20;99.90
29813;DHT22;16707;48.106;11.548;2023-05-19T04:11:51;9.20;99.90
29813;DHT22;16707;48.106;11.548;2023-05-19T04:14:25;9.20;99.90
29813;DHT22;16707;48.106;11.548;2023-05-19T04:17:00;9.20;99.90
29813;DHT22;16707;48.106;11.548;2023-05-19T04:19:27;9.30;99.90
29813;DHT22;16707;48.106;11.548;2023-05-19T04:22:02;9.30;99.90
29813;DHT22;16707;48.106;11.548;2023-05-19T04:24:30;9.40;99.90
29813;DHT22;16707;48.106;11.548;2023-05-19T04:27:04;9.40;99.90
29813;DHT22;16707;48.106;11.548;2023-05-19T04:29:36;9.40;99.90
29813;DHT22;16707;48.106;11.548;2023-05-19T04:32:07;9.40;99.90
29813;DHT22;16707;48.106;11.548;2023-05-19T04:34:37;9.50;99.90
29813;DHT22;16707;48.106;11.548;2023-05-19T04:37:05;9.50;99.90
29813;DHT22;16707;48.106;11.548;2023-05-19T04:39:33;9.60;99.90
29813;DHT22;16707;48.106;11.548;2023-05-19T04:42:03;9.70;99.90
29813;DHT22;16707;48.106;11.548;2023-05-19T04:44:30;9.60;99.90
29813;DHT22;16707;48.106;11.548;2023-05-19T04:47:01;9.60;99.90
29813;DHT22;16707;48.106;11.548;2023-05-19T04:49:33;9.70;99.90
29813;DHT22;16707;48.106;11.548;2023-05-19T04:52:04;9.80;99.90
29813;DHT22;16707;48.106;11.548;2023-05-19T04:54:40;10.00;99.90
29813;DHT22;16707;48.106;11.548;2023-05-19T04:57:07;10.00;99.90
29813;DHT22;16707;48.106;11.548;2023-05-19T04:59:38;10.00;99.90
29813;DHT22;16707;48.106;11.548;2023-05-19T05:02:11;10.00;99.90
29813;DHT22;16707;48.106;11.548;2023-05-19T05:04:38;10.00;99.90
29813;DHT22;16707;48.106;11.548;2023-05-19T05:07:08;10.10;99.90
29813;DHT22;16707;48.106;11.548;2023-05-19T05:09:41;10.50;99.90
29813;DHT22;16707;48.106;11.548;2023-05-19T05:12:10;11.00;99.90
29813;DHT22;16707;48.106;11.548;2023-05-19T05:14:43;11.60;99.90
29813;DHT22;16707;48.106;11.548;2023-05-19T05:17:20;11.50;99.90
29813;DHT22;16707;48.106;11.548;2023-05-19T05:19:53;11.60;99.90
29813;DHT22;16707;48.106;11.548;2023-05-19T05:22:28;11.70;99.90
29813;DHT22;16707;48.106;11.548;2023-05-19T05:24:57;12.30;99.90
29813;DHT22;16707;48.106;11.548;2023-05-19T05:27:25;12.90;99.90
29813;DHT22;16707;48.106;11.548;2023-05-19T05:29:52;13.00;99.90
29813;DHT22;16707;48.106;11.548;2023-05-19T05:32:22;13.50;99.70
29813;DHT22;16707;48.106;11.548;2023-05-19T05:35:02;13.90;99.50
29813;DHT22;16707;48.106;11.548;2023-05-19T05:37:29;14.50;98.00
29813;DHT22;16707;48.106;11.548;2023-05-19T05:39:57;14.90;94.80
29813;DHT22;16707;48.106;11.548;2023-05-19T05:42:24;17.10;92.50
29813;DHT22;16707;48.106;11.548;2023-05-19T05:44:57;16.60;90.00
29813;DHT22;16707;48.106;11.548;2023-05-19T05:47:25;15.80;90.60
29813;DHT22;16707;48.106;11.548;2023-05-19T05:49:53;16.20;90.70
29813;DHT22;16707;48.106;11.548;2023-05-19T05:52:28;18.70;80.40
29813;DHT22;16707;48.106;11.548;2023-05-19T05:54:58;21.70;65.80
29813;DHT22;16707;48.106;11.548;2023-05-19T05:57:26;19.80;67.60
29813;DHT22;16707;48.106;11.548;2023-05-19T05:59:55;22.10;59.60
29813;DHT22;16707;48.106;11.548;2023-05-19T06:02:22;23.40;55.20
29813;DHT22;16707;48.106;11.548;2023-05-19T06:04:50;23.00;55.30
29813;DHT22;16707;48.106;11.548;2023-05-19T06:07:18;23.70;52.90
29813;DHT22;16707;48.106;11.548;2023-05-19T06:09:51;22.20;54.80
29813;DHT22;16707;48.106;11.548;2023-05-19T06:12:22;22.50;55.00
29813;DHT22;16707;48.106;11.548;2023-05-19T06:14:51;22.60;51.70
29813;DHT22;16707;48.106;11.548;2023-05-19T06:17:18;18.30;62.40
29813;DHT22;16707;48.106;11.548;2023-05-19T06:19:49;16.40;71.00
29813;DHT22;16707;48.106;11.548;2023-05-19T06:22:16;16.80;72.30
29813;DHT22;16707;48.106;11.548;2023-05-19T06:24:49;16.20;74.70
29813;DHT22;16707;48.106;11.548;2023-05-19T06:27:16;16.20;76.90
29813;DHT22;16707;48.106;11.548;2023-05-19T06:29:47;16.50;77.00
29813;DHT22;16707;48.106;11.548;2023-05-19T06:32:18;19.50;69.50
29813;DHT22;16707;48.106;11.548;2023-05-19T06:34:45;18.80;63.80
29813;DHT22;16707;48.106;11.548;2023-05-19T06:37:19;18.70;64.40
29813;DHT22;16707;48.106;11.548;2023-05-19T06:39:50;17.90;70.40
29813;DHT22;16707;48.106;11.548;2023-05-19T06:42:20;16.60;71.90
29813;DHT22;16707;48.106;11.548;2023-05-19T06:44:50;19.00;73.40
29813;DHT22;16707;48.106;11.548;2023-05-19T06:47:27;19.10;65.50
29813;DHT22;16707;48.106;11.548;2023-05-19T06:49:57;18.20;67.10
29813;DHT22;16707;48.106;11.548;2023-05-19T06:52:24;17.80;68.10
29813;DHT22;16707;48.106;11.548;2023-05-19T06:54:52;19.50;62.10
29813;DHT22;16707;48.106;11.548;2023-05-19T06:57:22;21.10;61.60
29813;DHT22;16707;48.106;11.548;2023-05-19T06:59:56;22.50;53.10
29813;DHT22;16707;48.106;11.548;2023-05-19T07:02:23;20.70;57.80
29813;DHT22;16707;48.106;11.548;2023-05-19T07:04:50;20.10;57.60
29813;DHT22;16707;48.106;11.548;2023-05-19T07:07:21;21.20;58.40
29813;DHT22;16707;48.106;11.548;2023-05-19T07:09:52;18.40;61.80
29813;DHT22;16707;48.106;11.548;2023-05-19T07:12:22;19.50;65.20
29813;DHT22;16707;48.106;11.548;2023-05-19T07:14:51;19.30;60.00
29813;DHT22;16707;48.106;11.548;2023-05-19T07:17:21;16.80;66.50
29813;DHT22;16707;48.106;11.548;2023-05-19T07:19:51;15.50;73.60
29813;DHT22;16707;48.106;11.548;2023-05-19T07:22:26;16.20;75.10
29813;DHT22;16707;48.106;11.548;2023-05-19T07:24:54;16.80;73.20
29813;DHT22;16707;48.106;11.548;2023-05-19T07:27:25;16.70;71.60
29813;DHT22;16707;48.106;11.548;2023-05-19T07:29:54;16.40;73.70
29813;DHT22;16707;48.106;11.548;2023-05-19T07:32:23;15.70;74.90
29813;DHT22;16707;48.106;11.548;2023-05-19T07:34:51;14.90;81.30
29813;DHT22;16707;48.106;11.548;2023-05-19T07:37:25;14.30;82.40
29813;DHT22;16707;48.106;11.548;2023-05-19T07:39:53;14.50;85.50
29813;DHT22;16707;48.106;11.548;2023-05-19T07:42:20;14.20;86.00
29813;DHT22;16707;48.106;11.548;2023-05-19T07:44:54;14.20;87.10
29813;DHT22;16707;48.106;11.548;2023-05-19T07:47:26;14.50;86.30
29813;DHT22;16707;48.106;11.548;2023-05-19T07:49:53;15.20;87.20
29813;DHT22;16707;48.106;11.548;2023-05-19T07:52:23;15.60;82.60
29813;DHT22;16707;48.106;11.548;2023-05-19T07:54:52;15.60;80.20
29813;DHT22;16707;48.106;11.548;2023-05-19T07:57:19;15.60;81.90
29813;DHT22;16707;48.106;11.548;2023-05-19T07:59:48;15.70;81.60
29813;DHT22;16707;48.106;11.548;2023-05-19T08:02:15;15.70;80.20
29813;DHT22;16707;48.106;11.548;2023-05-19T08:04:44;15.10;81.50
29813;DHT22;16707;48.106;11.548;2023-05-19T08:07:15;15.30;82.70
29813;DHT22;16707;48.106;11.548;2023-05-19T08:09:42;15.60;82.30
29813;DHT22;16707;48.106;11.548;2023-05-19T08:12:10;15.80;81.00
29813;DHT22;16707;48.106;11.548;2023-05-19T08:14:37;15.40;81.00
29813;DHT22;16707;48.106;11.548;2023-05-19T08:17:04;14.80;84.00
29813;DHT22;16707;48.106;11.548;2023-05-19T08:19:35;14.60;84.80
29813;DHT22;16707;48.106;11.548;2023-05-19T08:22:07;14.20;89.40
29813;DHT22;16707;48.106;11.548;2023-05-19T08:24:34;13.70;90.50
29813;DHT22;16707;48.106;11.548;2023-05-19T08:27:01;13.50;90.90
29813;DHT22;16707;48.106;11.548;2023-05-19T08:29:34;13.20;91.70
29813;DHT22;16707;48.106;11.548;2023-05-19T08:32:03;13.40;92.50
29813;DHT22;16707;48.106;11.548;2023-05-19T08:34:30;13.40;91.90
29813;DHT22;16707;48.106;11.548;2023-05-19T08:37:00;13.40;92.60
29813;DHT22;16707;48.106;11.548;2023-05-19T08:39:29;13.10;93.20
29813;DHT22;16707;48.106;11.548;2023-05-19T08:41:58;13.10;94.10
29813;DHT22;16707;48.106;11.548;2023-05-19T08:44:27;12.80;94.80
29813;DHT22;16707;48.106;11.548;2023-05-19T08:46:58;12.70;95.20
29813;DHT22;16707;48.106;11.548;2023-05-19T08:49:36;12.80;95.60
29813;DHT22;16707;48.106;11.548;2023-05-19T08:52:15;12.90;95.90
29813;DHT22;16707;48.106;11.548;2023-05-19T08:54:52;12.90;96.40
29813;DHT22;16707;48.106;11.548;2023-05-19T08:57:26;13.00;95.30
29813;DHT22;16707;48.106;11.548;2023-05-19T08:59:54;12.90;95.70
29813;DHT22;16707;48.106;11.548;2023-05-19T09:02:25;12.70;96.20
29813;DHT22;16707;48.106;11.548;2023-05-19T09:04:56;12.70;96.80
29813;DHT22;16707;48.106;11.548;2023-05-19T09:07:33;12.90;96.30
29813;DHT22;16707;48.106;11.548;2023-05-19T09:10:12;13.30;96.10
29813;DHT22;16707;48.106;11.548;2023-05-19T09:12:44;13.30;94.70
29813;DHT22;16707;48.106;11.548;2023-05-19T09:15:16;13.50;94.70
29813;DHT22;16707;48.106;11.548;2023-05-19T09:17:47;13.70;94.60
29813;DHT22;16707;48.106;11.548;2023-05-19T09:20:17;13.90;93.90
29813;DHT22;16707;48.106;11.548;2023-05-19T09:22:47;13.70;93.70
29813;DHT22;16707;48.106;11.548;2023-05-19T09:25:19;14.00;93.70
29813;DHT22;16707;48.106;11.548;2023-05-19T09:27:53;14.20;92.60
29813;DHT22;16707;48.106;11.548;2023-05-19T09:30:26;13.80;92.70
29813;DHT22;16707;48.106;11.548;2023-05-19T09:32:53;14.00;92.50
29813;DHT22;16707;48.106;11.548;2023-05-19T09:35:24;14.20;92.30
29813;DHT22;16707;48.106;11.548;2023-05-19T09:37:53;14.50;92.10
29813;DHT22;16707;48.106;11.548;2023-05-19T09:40:27;14.90;91.50
29813;DHT22;16707;48.106;11.548;2023-05-19T09:42:54;14.80;90.70
29813;DHT22;16707;48.106;11.548;2023-05-19T09:45:28;14.90;90.60
29813;DHT22;16707;48.106;11.548;2023-05-19T09:47:56;14.70;89.40
29813;DHT22;16707;48.106;11.548;2023-05-19T09:50:29;14.50;90.70
29813;DHT22;16707;48.106;11.548;2023-05-19T09:53:01;13.90;91.30
29813;DHT22;16707;48.106;11.548;2023-05-19T09:55:33;14.10;91.60
29813;DHT22;16707;48.106;11.548;2023-05-19T09:58:01;14.30;91.10
29813;DHT22;16707;48.106;11.548;2023-05-19T10:00:30;14.50;90.40
29813;DHT22;16707;48.106;11.548;2023-05-19T10:02:59;14.30;90.70
29813;DHT22;16707;48.106;11.548;2023-05-19T10:05:27;14.40;90.80
29813;DHT22;16707;48.106;11.548;2023-05-19T10:07:59;14.50;90.70
29813;DHT22;16707;48.106;11.548;2023-05-19T10:10:33;14.50;90.80
29813;DHT22;16707;48.106;11.548;2023-05-19T10:13:00;14.90;90.40
29813;DHT22;16707;48.106;11.548;2023-05-19T10:15:28;14.90;90.30
29813;DHT22;16707;48.106;11.548;2023-05-19T10:17:59;14.30;90.30
29813;DHT22;16707;48.106;11.548;2023-05-19T10:20:27;14.10;91.60
29813;DHT22;16707;48.106;11.548;2023-05-19T10:22:54;14.00;92.00
29813;DHT22;16707;48.106;11.548;2023-05-19T10:25:22;14.00;92.10
29813;DHT22;16707;48.106;11.548;2023-05-19T10:27:54;14.00;92.60
29813;DHT22;16707;48.106;11.548;2023-05-19T10:30:25;14.10;92.40
29813;DHT22;16707;48.106;11.548;2023-05-19T10:32:55;14.10;92.50
29813;DHT22;16707;48.106;11.548;2023-05-19T10:35:51;14.40;92.00
29813;DHT22;16707;48.106;11.548;2023-05-19T10:38:33;14.70;91.70
29813;DHT22;16707;48.106;11.548;2023-05-19T10:41:09;14.50;91.40
29813;DHT22;16707;48.106;11.548;2023-05-19T10:43:51;14.50;91.70
29813;DHT22;16707;48.106;11.548;2023-05-19T10:46:23;14.20;92.00
29813;DHT22;16707;48.106;11.548;2023-05-19T10:48:51;14.20;92.30
29813;DHT22;16707;48.106;11.548;2023-05-19T10:51:27;14.10;91.90
29813;DHT22;16707;48.106;11.548;2023-05-19T10:53:56;14.40;91.90
29813;DHT22;16707;48.106;11.548;2023-05-19T10:56:28;14.30;91.80
29813;DHT22;16707;48.106;11.548;2023-05-19T10:58:59;14.30;92.70
29813;DHT22;16707;48.106;11.548;2023-05-19T11:01:31;14.30;92.10
29813;DHT22;16707;48.106;11.548;2023-05-19T11:04:08;14.40;92.20
29813;DHT22;16707;48.106;11.548;2023-05-19T11:06:37;14.50;91.40
29813;DHT22;16707;48.106;11.548;2023-05-19T11:09:13;13.90;92.20
29813;DHT22;16707;48.106;11.548;2023-05-19T11:11:46;13.70;92.90
29813;DHT22;16707;48.106;11.548;2023-05-19T11:14:22;13.80;93.30
29813;DHT22;16707;48.106;11.548;2023-05-19T11:16:51;13.90;92.90
29813;DHT22;16707;48.106;11.548;2023-05-19T11:19:25;14.10;93.10
29813;DHT22;16707;48.106;11.548;2023-05-19T11:21:56;14.30;92.70
29813;DHT22;16707;48.106;11.548;2023-05-19T11:24:37;14.60;92.30
29813;DHT22;16707;48.106;11.548;2023-05-19T11:27:24;14.70;91.00
29813;DHT22;16707;48.106;11.548;2023-05-19T11:29:57;14.60;91.40
29813;DHT22;16707;48.106;11.548;2023-05-19T11:32:27;14.90;91.10
29813;DHT22;16707;48.106;11.548;2023-05-19T11:34:59;15.00;90.40
29813;DHT22;16707;48.106;11.548;2023-05-19T11:37:27;14.80;90.90
29813;DHT22;16707;48.106;11.548;2023-05-19T11:40:04;15.20;90.20
29813;DHT22;16707;48.106;11.548;2023-05-19T11:42:35;15.60;90.00
29813;DHT22;16707;48.106;11.548;2023-05-19T11:45:04;15.30;88.70
29813;DHT22;16707;48.106;11.548;2023-05-19T11:47:37;15.10;88.90
29813;DHT22;16707;48.106;11.548;2023-05-19T11:50:05;15.00;89.90
29813;DHT22;16707;48.106;11.548;2023-05-19T11:52:39;15.00;90.50
29813;DHT22;16707;48.106;11.548;2023-05-19T11:55:14;15.00;90.80
29813;DHT22;16707;48.106;11.548;2023-05-19T11:57:55;14.70;90.50
29813;DHT22;16707;48.106;11.548;2023-05-19T12:00:29;14.70;91.00
29813;DHT22;16707;48.106;11.548;2023-05-19T12:03:02;14.30;91.60
29813;DHT22;16707;48.106;11.548;2023-05-19T12:05:48;14.10;92.20
29813;DHT22;16707;48.106;11.548;2023-05-19T12:08:16;14.20;93.00
29813;DHT22;16707;48.106;11.548;2023-05-19T12:10:47;14.40;92.40
29813;DHT22;16707;48.106;11.548;2023-05-19T12:13:18;14.20;92.20
29813;DHT22;16707;48.106;11.548;2023-05-19T12:15:49;14.20;92.70
29813;DHT22;16707;48.106;11.548;2023-05-19T12:18:20;13.70;93.20
29813;DHT22;16707;48.106;11.548;2023-05-19T12:20:48;14.00;94.00
29813;DHT22;16707;48.106;11.548;2023-05-19T12:23:15;13.70;93.30
29813;DHT22;16707;48.106;11.548;2023-05-19T12:25:43;14.10;93.10
29813;DHT22;16707;48.106;11.548;2023-05-19T12:28:10;13.70;93.50
29813;DHT22;16707;48.106;11.548;2023-05-19T12:30:39;13.80;93.90
29813;DHT22;16707;48.106;11.548;2023-05-19T12:33:08;14.00;93.70
29813;DHT22;16707;48.106;11.548;2023-05-19T12:35:36;14.20;93.70
29813;DHT22;16707;48.106;11.548;2023-05-19T12:38:04;14.40;93.10
29813;DHT22;16707;48.106;11.548;2023-05-19T12:40:32;14.60;92.70
29813;DHT22;16707;48.106;11.548;2023-05-19T12:43:03;14.30;92.70
29813;DHT22;16707;48.106;11.548;2023-05-19T12:45:33;14.20;92.70
29813;DHT22;16707;48.106;11.548;2023-05-19T12:48:02;14.00;93.60
29813;DHT22;16707;48.106;11.548;2023-05-19T12:50:32;14.10;93.30
29813;DHT22;16707;48.106;11.548;2023-05-19T12:53:00;14.40;92.70
29813;DHT22;16707;48.106;11.548;2023-05-19T12:55:27;14.00;92.90
29813;DHT22;16707;48.106;11.548;2023-05-19T12:57:54;14.40;93.00
29813;DHT22;16707;48.106;11.548;2023-05-19T13:00:25;14.60;92.40
29813;DHT22;16707;48.106;11.548;2023-05-19T13:02:57;14.70;91.70
29813;DHT22;16707;48.106;11.548;2023-05-19T13:05:26;14.80;91.80
29813;DHT22;16707;48.106;11.548;2023-05-19T13:07:56;14.40;92.30
29813;DHT22;16707;48.106;11.548;2023-05-19T13:10:24;14.60;92.20
29813;DHT22;16707;48.106;11.548;2023-05-19T13:12:56;14.50;91.40
29813;DHT22;16707;48.106;11.548;2023-05-19T13:15:30;14.80;91.70
29813;DHT22;16707;48.106;11.548;2023-05-19T13:17:59;14.80;91.30
29813;DHT22;16707;48.106;11.548;2023-05-19T13:20:28;15.30;91.00
29813;DHT22;16707;48.106;11.548;2023-05-19T13:22:57;16.10;90.10
29813;DHT22;16707;48.106;11.548;2023-05-19T13:25:28;16.20;85.90
29813;DHT22;16707;48.106;11.548;2023-05-19T13:27:55;16.30;85.50
29813;DHT22;16707;48.106;11.548;2023-05-19T13:30:28;15.80;86.40
29813;DHT22;16707;48.106;11.548;2023-05-19T13:32:55;15.70;87.90
29813;DHT22;16707;48.106;11.548;2023-05-19T13:35:29;15.90;87.30
29813;DHT22;16707;48.106;11.548;2023-05-19T13:38:03;15.20;89.30
29813;DHT22;16707;48.106;11.548;2023-05-19T13:40:37;15.60;89.70
29813;DHT22;16707;48.106;11.548;2023-05-19T13:43:10;16.30;87.30
29813;DHT22;16707;48.106;11.548;2023-05-19T13:45:41;16.20;86.20
29813;DHT22;16707;48.106;11.548;2023-05-19T13:48:09;16.10;84.80
29813;DHT22;16707;48.106;11.548;2023-05-19T13:50:37;16.20;85.10
29813;DHT22;16707;48.106;11.548;2023-05-19T13:53:10;15.80;87.90
29813;DHT22;16707;48.106;11.548;2023-05-19T13:55:43;15.90;86.50
29813;DHT22;16707;48.106;11.548;2023-05-19T13:58:14;15.70;87.00
29813;DHT22;16707;48.106;11.548;2023-05-19T14:00:53;16.10;86.90
29813;DHT22;16707;48.106;11.548;2023-05-19T14:03:21;15.60;87.80
29813;DHT22;16707;48.106;11.548;2023-05-19T14:05:49;15.50;88.10
29813;DHT22;16707;48.106;11.548;2023-05-19T14:08:21;15.40;90.10
29813;DHT22;16707;48.106;11.548;2023-05-19T14:10:57;15.70;90.30
29813;DHT22;16707;48.106;11.548;2023-05-19T14:13:37;15.50;88.60
29813;DHT22;16707;48.106;11.548;2023-05-19T14:16:09;15.40;90.20
29813;DHT22;16707;48.106;11.548;2023-05-19T14:18:39;15.40;90.10
29813;DHT22;16707;48.106;11.548;2023-05-19T14:21:09;15.30;90.30
29813;DHT22;16707;48.106;11.548;2023-05-19T14:23:44;15.40;90.40
29813;DHT22;16707;48.106;11.548;2023-05-19T14:26:12;15.60;90.00
29813;DHT22;16707;48.106;11.548;2023-05-19T14:28:46;15.50;90.20
29813;DHT22;16707;48.106;11.548;2023-05-19T14:31:16;15.00;90.70
29813;DHT22;16707;48.106;11.548;2023-05-19T14:33:44;15.30;91.30
29813;DHT22;16707;48.106;11.548;2023-05-19T14:36:11;15.60;90.90
29813;DHT22;16707;48.106;11.548;2023-05-19T14:38:45;15.80;90.50
29813;DHT22;16707;48.106;11.548;2023-05-19T14:41:14;16.00;90.20
29813;DHT22;16707;48.106;11.548;2023-05-19T14:43:47;16.40;89.20
29813;DHT22;16707;48.106;11.548;2023-05-19T14:46:15;16.30;88.50
29813;DHT22;16707;48.106;11.548;2023-05-19T14:48:42;16.00;89.10
29813;DHT22;16707;48.106;11.548;2023-05-19T14:51:10;16.10;88.50
29813;DHT22;16707;48.106;11.548;2023-05-19T14:53:41;15.90;90.00
29813;DHT22;16707;48.106;11.548;2023-05-19T14:56:10;15.70;90.30
29813;DHT22;16707;48.106;11.548;2023-05-19T14:58:37;15.90;90.30
29813;DHT22;16707;48.106;11.548;2023-05-19T15:01:08;16.20;89.50
29813;DHT22;16707;48.106;11.548;2023-05-19T15:03:36;16.00;89.70
29813;DHT22;16707;48.106;11.548;2023-05-19T15:06:07;15.90;90.30
29813;DHT22;16707;48.106;11.548;2023-05-19T15:08:37;15.80;90.30
29813;DHT22;16707;48.106;11.548;2023-05-19T15:11:06;15.70;90.30
29813;DHT22;16707;48.106;11.548;2023-05-19T15:13:35;15.40;91.40
29813;DHT22;16707;48.106;11.548;2023-05-19T15:16:02;15.50;92.30
29813;DHT22;16707;48.106;11.548;2023-05-19T15:18:29;15.90;91.20
29813;DHT22;16707;48.106;11.548;2023-05-19T15:20:59;16.00;90.50
29813;DHT22;16707;48.106;11.548;2023-05-19T15:23:27;16.00;90.20
29813;DHT22;16707;48.106;11.548;2023-05-19T15:25:55;15.90;90.30
29813;DHT22;16707;48.106;11.548;2023-05-19T15:28:22;15.80;90.60
29813;DHT22;16707;48.106;11.548;2023-05-19T15:30:52;16.00;90.40
29813;DHT22;16707;48.106;11.548;2023-05-19T15:33:21;16.10;90.50
29813;DHT22;16707;48.106;11.548;2023-05-19T15:35:56;16.40;90.30
29813;DHT22;16707;48.106;11.548;2023-05-19T15:38:23;16.60;88.60
29813;DHT22;16707;48.106;11.548;2023-05-19T15:41:17;16.80;87.20
29813;DHT22;16707;48.106;11.548;2023-05-19T15:43:44;16.90;88.50